createdAt,value
2023-01-07T00:03:22.138Z,6.45
2023-01-07T00:08:25.263Z,7.20
2023-01-07T00:13:28.697Z,7.18
2023-01-07T00:18:33.879Z,7.07
2023-01-07T00:23:38.728Z,5.80
2023-01-07T00:28:43.419Z,6.35
2023-01-07T00:34:06.738Z,6.15
2023-01-07T00:39:13.426Z,5.88
2023-01-07T00:44:16.552Z,6.88
2023-01-07T00:49:21.034Z,6.72
2023-01-07T00:54:24.474Z,6.10
2023-01-07T00:59:27.803Z,5.95
2023-01-07T01:04:32.445Z,5.80
2023-01-07T01:09:35.619Z,5.77
2023-01-07T01:14:38.866Z,5.93
2023-01-07T01:19:44.058Z,5.75
2023-01-07T01:24:47.209Z,6.28
2023-01-07T01:29:50.386Z,5.88
2023-01-07T01:34:55.492Z,5.72
2023-01-07T01:39:58.692Z,4.63
2023-01-07T01:45:03.907Z,5.78
2023-01-07T01:50:18.708Z,5.15
2023-01-07T01:55:25.705Z,5.30
2023-01-07T02:00:31.511Z,5.47
2023-01-07T02:05:40.474Z,5.30
2023-01-07T02:10:44.145Z,5.07
2023-01-07T02:15:54.687Z,6.00
2023-01-07T02:21:10.577Z,4.88
2023-01-07T02:26:55.291Z,5.15
2023-01-07T02:37:16.965Z,5.38
2023-01-07T02:42:27.516Z,4.10
2023-01-07T02:47:36.584Z,4.72
2023-01-07T02:52:39.923Z,3.97
2023-01-07T02:58:24.438Z,4.67
2023-01-07T03:03:48.483Z,5.00
2023-01-07T03:09:04.762Z,6.43
2023-01-07T03:14:15.972Z,4.45
2023-01-07T03:19:26.716Z,4.95
2023-01-07T03:24:31.360Z,4.32
2023-01-07T03:29:35.785Z,4.13
2023-01-07T03:34:43.327Z,4.63
2023-01-07T03:39:47.818Z,4.80
2023-01-07T03:44:50.840Z,4.47
2023-01-07T03:49:56.725Z,5.53
2023-01-07T03:55:00.083Z,4.70
2023-01-07T04:00:05.163Z,5.53
2023-01-07T04:05:18.912Z,4.45
2023-01-07T04:10:22.270Z,4.40
2023-01-07T04:15:25.308Z,4.15
2023-01-07T04:20:30.073Z,4.57
2023-01-07T04:25:33.275Z,5.10
2023-01-07T04:30:39.616Z,5.10
2023-01-07T04:35:46.350Z,3.83
2023-01-07T04:40:49.831Z,4.95
2023-01-07T04:45:53.729Z,5.88
2023-01-07T04:50:59.206Z,4.72
2023-01-07T04:56:02.575Z,3.72
2023-01-07T05:01:07.296Z,5.00
2023-01-07T05:06:13.386Z,6.40
2023-01-07T05:11:21.665Z,6.35
2023-01-07T05:16:27.801Z,5.22
2023-01-07T05:21:37.094Z,5.28
2023-01-07T05:26:40.410Z,6.50
2023-01-07T05:31:44.015Z,6.95
2023-01-07T05:36:48.893Z,5.45
2023-01-07T05:41:53.087Z,6.03
2023-01-07T05:46:57.377Z,6.20
2023-01-07T05:52:01.744Z,6.15
2023-01-07T05:57:04.759Z,7.47
2023-01-07T06:02:07.868Z,5.93
2023-01-07T06:07:12.320Z,7.30
2023-01-07T06:12:15.512Z,6.13
2023-01-07T06:17:18.697Z,5.57
2023-01-07T06:22:23.203Z,6.45
2023-01-07T06:27:26.296Z,8.32
2023-01-07T06:32:29.359Z,7.22
2023-01-07T06:37:34.144Z,7.35
2023-01-07T06:42:37.232Z,9.38
2023-01-07T06:47:40.455Z,6.93
2023-01-07T06:52:44.998Z,5.95
2023-01-07T06:57:48.096Z,8.07
2023-01-07T07:02:51.322Z,7.53
2023-01-07T07:07:56.464Z,6.05
2023-01-07T07:12:59.511Z,5.85
2023-01-07T07:18:02.605Z,7.18
2023-01-07T07:23:06.991Z,7.35
2023-01-07T07:28:10.821Z,7.40
2023-01-07T07:33:15.030Z,7.32
2023-01-07T07:38:19.919Z,6.65
2023-01-07T07:43:23.197Z,8.13
2023-01-07T07:48:26.302Z,7.30
2023-01-07T07:53:30.809Z,6.43
2023-01-07T07:58:33.886Z,8.37
2023-01-07T08:03:37.035Z,7.45
2023-01-07T08:08:41.841Z,7.35
2023-01-07T08:13:45.333Z,7.53
2023-01-07T08:18:48.493Z,7.53
2023-01-07T08:23:53.125Z,6.85
2023-01-07T08:28:56.214Z,6.83
2023-01-07T08:33:59.294Z,6.03
2023-01-07T08:39:03.756Z,5.55
2023-01-07T08:44:06.924Z,6.23
2023-01-07T08:49:10.697Z,5.30
2023-01-07T08:54:15.365Z,5.20
2023-01-07T08:59:18.472Z,6.13
2023-01-07T09:04:21.676Z,5.20
2023-01-07T09:09:26.570Z,4.70
2023-01-07T09:14:29.939Z,5.47
2023-01-07T09:19:33.184Z,4.53
2023-01-07T09:24:37.723Z,5.00
2023-01-07T09:29:42.455Z,5.37
2023-01-07T09:34:45.601Z,4.15
2023-01-07T09:39:50.082Z,5.40
2023-01-07T09:45:04.434Z,5.47
2023-01-07T09:50:16.501Z,4.67
2023-01-07T09:55:28.546Z,4.25
2023-01-07T10:00:35.343Z,3.97
2023-01-07T10:05:46.193Z,6.07
2023-01-07T10:10:56.990Z,5.47
2023-01-07T10:16:07.318Z,5.13
2023-01-07T10:21:19.238Z,4.45
2023-01-07T10:26:33.524Z,4.80
2023-01-07T10:31:37.283Z,3.87
2023-01-07T10:36:51.995Z,4.13
2023-01-07T10:47:13.447Z,3.40
2023-01-07T10:52:30.961Z,3.28
2023-01-07T10:57:37.314Z,5.00
2023-01-07T11:02:44.166Z,5.15
2023-01-07T11:07:50.897Z,3.80
2023-01-07T11:12:58.824Z,3.10
2023-01-07T11:18:05.188Z,3.35
2023-01-07T11:23:22.266Z,3.05
2023-01-07T11:28:28.384Z,3.28
2023-01-07T11:34:02.008Z,3.40
2023-01-07T11:39:10.747Z,3.55
2023-01-07T11:44:16.987Z,3.45
2023-01-07T11:49:25.155Z,4.30
2023-01-07T11:54:29.941Z,3.70
2023-01-07T11:59:34.517Z,2.83
2023-01-07T12:04:37.659Z,3.63
2023-01-07T12:09:43.399Z,3.25
2023-01-07T12:14:49.309Z,2.63
2023-01-07T12:20:15.846Z,2.90
2023-01-07T12:25:40.613Z,2.50
2023-01-07T12:31:06.369Z,1.67
2023-01-07T12:36:16.087Z,1.98
2023-01-07T12:41:22.252Z,1.65
2023-01-07T12:46:30.442Z,1.80
2023-01-07T12:51:38.810Z,1.77
2023-01-07T12:56:48.104Z,2.00
2023-01-07T13:01:57.548Z,1.70
2023-01-07T13:07:08.663Z,1.50
2023-01-07T13:12:42.177Z,1.60
2023-01-07T13:17:48.527Z,1.47
2023-01-07T13:22:54.917Z,1.65
2023-01-07T13:28:25.275Z,1.27
2023-01-07T13:33:38.172Z,1.25
2023-01-07T13:39:14.760Z,1.50
2023-01-07T13:44:40.496Z,1.58
2023-01-07T13:49:56.355Z,1.50
2023-01-07T13:55:01.679Z,1.50
2023-01-07T14:00:26.683Z,1.73
2023-01-07T14:05:31.370Z,1.40
2023-01-07T14:10:36.965Z,1.63
2023-01-07T14:16:04.897Z,1.30
2023-01-07T14:21:30.724Z,1.30
2023-01-07T14:26:41.802Z,2.20
2023-01-07T14:31:45.872Z,1.77
2023-01-07T14:37:15.777Z,2.13
2023-01-07T14:42:49.205Z,2.00
2023-01-07T14:47:53.895Z,2.10
2023-01-07T14:53:33.125Z,1.70
2023-01-07T14:58:47.261Z,1.92
2023-01-07T15:04:01.601Z,1.80
2023-01-07T15:09:29.859Z,2.20
2023-01-07T15:14:59.058Z,2.03
2023-01-07T15:20:05.709Z,2.00
2023-01-07T15:25:24.159Z,1.75
2023-01-07T15:30:35.801Z,1.77
2023-01-07T15:35:41.838Z,1.42
2023-01-07T15:40:47.372Z,1.70
2023-01-07T15:45:58.630Z,1.90
2023-01-07T15:51:02.299Z,2.10
2023-01-07T15:56:11.680Z,2.47
2023-01-07T16:01:18.466Z,2.67
2023-01-07T16:06:34.716Z,2.28
2023-01-07T16:11:39.281Z,2.70
2023-01-07T16:16:42.630Z,1.80
2023-01-07T16:21:51.215Z,2.13
2023-01-07T16:26:59.870Z,2.28
2023-01-07T16:32:06.789Z,1.70
2023-01-07T16:37:15.040Z,2.20
2023-01-07T16:42:23.170Z,1.90
2023-01-07T16:47:28.912Z,2.20
2023-01-07T16:52:33.496Z,2.28
2023-01-07T16:57:42.206Z,1.57
2023-01-07T17:02:49.274Z,2.28
2023-01-07T17:07:55.603Z,2.55
2023-01-07T17:13:03.043Z,2.53
2023-01-07T17:18:29.317Z,1.98
2023-01-07T17:23:40.489Z,1.50
2023-01-07T17:28:48.129Z,2.00
2023-01-07T17:33:51.475Z,1.85
2023-01-07T17:38:54.647Z,1.83
2023-01-07T17:43:59.094Z,2.05
2023-01-07T17:49:02.360Z,2.00
2023-01-07T17:54:06.787Z,1.73
2023-01-07T17:59:14.129Z,1.63
2023-01-07T18:04:18.098Z,1.35
2023-01-07T18:09:21.245Z,1.35
2023-01-07T18:14:25.978Z,1.48
2023-01-07T18:19:29.070Z,1.93
2023-01-07T18:24:32.196Z,1.50
2023-01-07T18:29:36.526Z,1.77
2023-01-07T18:34:39.801Z,1.70
2023-01-07T18:39:42.784Z,1.45
2023-01-07T18:44:47.222Z,1.90
2023-01-07T18:49:50.327Z,1.87
2023-01-07T18:54:53.401Z,2.15
2023-01-07T18:59:57.791Z,2.45
2023-01-07T19:05:00.818Z,2.13
2023-01-07T19:10:04.777Z,2.22
2023-01-07T19:15:10.538Z,2.20
2023-01-07T19:20:15.300Z,2.42
2023-01-07T19:25:18.512Z,2.50
2023-01-07T19:30:23.224Z,2.75
2023-01-07T19:35:27.380Z,2.50
2023-01-07T19:40:30.560Z,2.10
2023-01-07T19:45:35.018Z,2.75
2023-01-07T19:50:38.182Z,2.30
2023-01-07T19:55:41.251Z,2.28
2023-01-07T20:00:45.810Z,2.47
2023-01-07T20:05:49.019Z,4.63
2023-01-07T20:10:56.224Z,2.80
2023-01-07T20:16:05.643Z,2.22
2023-01-07T20:21:09.903Z,2.20
2023-01-07T20:26:15.716Z,2.33
2023-01-07T20:31:22.086Z,2.50
2023-01-07T20:36:27.231Z,2.75
2023-01-07T20:41:31.417Z,2.55
2023-01-07T20:46:35.811Z,2.83
2023-01-07T20:51:38.919Z,2.70
2023-01-07T20:56:42.324Z,2.08
2023-01-07T21:01:47.303Z,2.70
2023-01-07T21:06:50.794Z,2.80
2023-01-07T21:11:54.030Z,3.05
2023-01-07T21:16:58.437Z,3.78
2023-01-07T21:22:01.524Z,3.20
2023-01-07T21:27:04.601Z,2.67
2023-01-07T21:32:09.066Z,2.80
2023-01-07T21:37:12.108Z,3.17
2023-01-07T21:42:15.363Z,3.70
2023-01-07T21:47:19.641Z,4.75
2023-01-07T21:52:22.767Z,3.55
2023-01-07T21:57:25.902Z,3.15
2023-01-07T22:02:30.301Z,3.67
2023-01-07T22:07:33.537Z,3.43
2023-01-07T22:12:36.859Z,3.03
2023-01-07T22:17:41.288Z,3.38
2023-01-07T22:22:44.413Z,3.23
2023-01-07T22:27:47.554Z,3.33
2023-01-07T22:32:51.983Z,3.08
2023-01-07T22:37:55.867Z,3.10
2023-01-07T22:43:06.063Z,2.83
2023-01-07T22:48:14.189Z,3.20
2023-01-07T22:53:17.561Z,3.15
2023-01-07T22:58:20.744Z,3.22
2023-01-07T23:03:25.609Z,3.28
2023-01-07T23:08:29.341Z,4.22
2023-01-07T23:13:32.870Z,3.20
2023-01-07T23:18:37.508Z,3.58
2023-01-07T23:23:40.805Z,3.33
2023-01-07T23:28:44.136Z,3.10
2023-01-07T23:33:48.639Z,3.58
2023-01-07T23:38:52.215Z,3.57
2023-01-07T23:43:55.515Z,3.38
2023-01-07T23:49:00.082Z,2.50
2023-01-07T23:54:03.169Z,2.87
2023-01-07T23:59:06.561Z,3.00
